sensor_id;sensor_type;location;lat;lon;timestamp;pressure;altitude;pressure_sealevel;temperature;humidity
45541;BME280;31265;49.680;8.608;2023-04-15T00:01:08;99627.19;;;3.37;100.00
45541;BME280;31265;49.680;8.608;2023-04-15T00:03:37;99628.44;;;3.49;100.00
45541;BME280;31265;49.680;8.608;2023-04-15T00:06:06;99626.75;;;3.46;100.00
45541;BME280;31265;49.680;8.608;2023-04-15T00:08:35;99621.38;;;3.40;100.00
45541;BME280;31265;49.680;8.608;2023-04-15T00:11:07;99629.00;;;3.34;100.00
45541;BME280;31265;49.680;8.608;2023-04-15T00:13:38;99624.03;;;3.33;100.00
45541;BME280;31265;49.680;8.608;2023-04-15T00:16:08;99628.75;;;3.45;100.00
45541;BME280;31265;49.680;8.608;2023-04-15T00:18:37;99621.81;;;3.44;100.00
45541;BME280;31265;49.680;8.608;2023-04-15T00:21:07;99620.22;;;3.36;100.00
45541;BME280;31265;49.680;8.608;2023-04-15T00:23:35;99617.16;;;3.26;100.00
45541;BME280;31265;49.680;8.608;2023-04-15T00:26:08;99621.09;;;3.17;100.00
45541;BME280;31265;49.680;8.608;2023-04-15T00:28:37;99614.44;;;3.13;100.00
45541;BME280;31265;49.680;8.608;2023-04-15T00:31:05;99609.81;;;3.08;100.00
45541;BME280;31265;49.680;8.608;2023-04-15T00:33:34;99617.81;;;3.06;100.00
45541;BME280;31265;49.680;8.608;2023-04-15T00:36:05;99614.63;;;3.01;100.00
45541;BME280;31265;49.680;8.608;2023-04-15T00:38:36;99608.75;;;2.97;100.00
45541;BME280;31265;49.680;8.608;2023-04-15T00:41:05;99605.78;;;2.95;100.00
45541;BME280;31265;49.680;8.608;2023-04-15T00:43:36;99605.56;;;2.93;100.00
45541;BME280;31265;49.680;8.608;2023-04-15T00:46:05;99602.84;;;2.93;100.00
45541;BME280;31265;49.680;8.608;2023-04-15T00:48:35;99604.09;;;2.92;100.00
45541;BME280;31265;49.680;8.608;2023-04-15T00:51:06;99602.84;;;2.93;100.00
45541;BME280;31265;49.680;8.608;2023-04-15T00:53:35;99602.22;;;2.87;100.00
45541;BME280;31265;49.680;8.608;2023-04-15T00:56:05;99596.81;;;2.82;100.00
45541;BME280;31265;49.680;8.608;2023-04-15T00:58:36;99596.63;;;2.79;100.00
45541;BME280;31265;49.680;8.608;2023-04-15T01:01:04;99601.16;;;2.77;100.00
45541;BME280;31265;49.680;8.608;2023-04-15T01:03:32;99595.22;;;2.73;100.00
45541;BME280;31265;49.680;8.608;2023-04-15T01:06:02;99596.47;;;2.72;100.00
45541;BME280;31265;49.680;8.608;2023-04-15T01:08:30;99603.25;;;2.71;100.00
45541;BME280;31265;49.680;8.608;2023-04-15T01:11:01;99598.81;;;2.68;100.00
45541;BME280;31265;49.680;8.608;2023-04-15T01:13:32;99597.13;;;2.65;100.00
45541;BME280;31265;49.680;8.608;2023-04-15T01:16:02;99592.91;;;2.64;100.00
45541;BME280;31265;49.680;8.608;2023-04-15T01:18:31;99599.09;;;2.64;100.00
45541;BME280;31265;49.680;8.608;2023-04-15T01:21:00;99600.16;;;2.61;100.00
45541;BME280;31265;49.680;8.608;2023-04-15T01:23:30;99587.97;;;2.62;100.00
45541;BME280;31265;49.680;8.608;2023-04-15T01:26:01;99594.38;;;2.65;100.00
45541;BME280;31265;49.680;8.608;2023-04-15T01:28:29;99602.59;;;2.65;100.00
45541;BME280;31265;49.680;8.608;2023-04-15T01:31:05;99599.44;;;2.61;100.00
45541;BME280;31265;49.680;8.608;2023-04-15T01:33:37;99594.25;;;2.57;100.00
45541;BME280;31265;49.680;8.608;2023-04-15T01:36:07;99591.84;;;2.53;100.00
45541;BME280;31265;49.680;8.608;2023-04-15T01:38:36;99597.63;;;2.50;100.00
45541;BME280;31265;49.680;8.608;2023-04-15T01:41:06;99593.09;;;2.52;100.00
45541;BME280;31265;49.680;8.608;2023-04-15T01:43:35;99602.06;;;2.53;100.00
45541;BME280;31265;49.680;8.608;2023-04-15T01:46:03;99599.00;;;2.56;100.00
45541;BME280;31265;49.680;8.608;2023-04-15T01:48:33;99593.63;;;2.64;100.00
45541;BME280;31265;49.680;8.608;2023-04-15T01:51:03;99601.34;;;2.66;100.00
45541;BME280;31265;49.680;8.608;2023-04-15T01:53:32;99608.72;;;2.71;100.00
45541;BME280;31265;49.680;8.608;2023-04-15T01:56:01;99605.75;;;2.69;100.00
45541;BME280;31265;49.680;8.608;2023-04-15T01:58:32;99614.53;;;2.67;100.00
45541;BME280;31265;49.680;8.608;2023-04-15T02:01:00;99610.06;;;2.64;100.00
45541;BME280;31265;49.680;8.608;2023-04-15T02:03:32;99613.34;;;2.63;100.00
45541;BME280;31265;49.680;8.608;2023-04-15T02:06:00;99610.81;;;2.65;100.00
45541;BME280;31265;49.680;8.608;2023-04-15T02:08:30;99621.47;;;2.68;100.00
45541;BME280;31265;49.680;8.608;2023-04-15T02:10:58;99625.16;;;2.71;100.00
45541;BME280;31265;49.680;8.608;2023-04-15T02:13:27;99626.88;;;2.87;100.00
45541;BME280;31265;49.680;8.608;2023-04-15T02:15:58;99624.03;;;2.93;100.00
45541;BME280;31265;49.680;8.608;2023-04-15T02:18:26;99622.00;;;2.80;100.00
45541;BME280;31265;49.680;8.608;2023-04-15T02:20:54;99622.63;;;2.73;100.00
45541;BME280;31265;49.680;8.608;2023-04-15T02:23:25;99619.13;;;2.59;100.00
45541;BME280;31265;49.680;8.608;2023-04-15T02:25:57;99618.25;;;2.51;100.00
45541;BME280;31265;49.680;8.608;2023-04-15T02:28:26;99627.59;;;2.42;100.00
45541;BME280;31265;49.680;8.608;2023-04-15T02:30:55;99619.34;;;2.29;100.00
45541;BME280;31265;49.680;8.608;2023-04-15T02:33:28;99614.03;;;2.18;100.00
45541;BME280;31265;49.680;8.608;2023-04-15T02:36:00;99616.72;;;2.04;100.00
45541;BME280;31265;49.680;8.608;2023-04-15T02:38:28;99626.81;;;1.96;100.00
45541;BME280;31265;49.680;8.608;2023-04-15T02:40:58;99623.84;;;1.94;100.00
45541;BME280;31265;49.680;8.608;2023-04-15T02:43:28;99627.84;;;1.93;100.00
45541;BME280;31265;49.680;8.608;2023-04-15T02:45:56;99628.66;;;1.88;100.00
45541;BME280;31265;49.680;8.608;2023-04-15T02:48:27;99622.00;;;1.83;100.00
45541;BME280;31265;49.680;8.608;2023-04-15T02:51:10;99626.72;;;1.83;100.00
45541;BME280;31265;49.680;8.608;2023-04-15T02:53:39;99624.75;;;1.83;100.00
45541;BME280;31265;49.680;8.608;2023-04-15T02:56:08;99618.84;;;1.79;100.00
45541;BME280;31265;49.680;8.608;2023-04-15T02:58:39;99621.66;;;1.74;100.00
45541;BME280;31265;49.680;8.608;2023-04-15T03:01:09;99621.66;;;1.74;100.00
45541;BME280;31265;49.680;8.608;2023-04-15T03:03:42;99616.91;;;1.74;100.00
45541;BME280;31265;49.680;8.608;2023-04-15T03:06:12;99626.81;;;1.77;100.00
45541;BME280;31265;49.680;8.608;2023-04-15T03:08:40;99632.00;;;1.81;100.00
45541;BME280;31265;49.680;8.608;2023-04-15T03:11:13;99636.44;;;1.84;100.00
45541;BME280;31265;49.680;8.608;2023-04-15T03:13:42;99632.97;;;1.83;100.00
45541;BME280;31265;49.680;8.608;2023-04-15T03:16:24;99637.47;;;1.81;100.00
45541;BME280;31265;49.680;8.608;2023-04-15T03:18:55;99635.97;;;1.80;100.00
45541;BME280;31265;49.680;8.608;2023-04-15T03:21:24;99637.03;;;1.77;100.00
45541;BME280;31265;49.680;8.608;2023-04-15T03:23:53;99627.13;;;1.74;100.00
45541;BME280;31265;49.680;8.608;2023-04-15T03:26:25;99626.34;;;1.73;100.00
45541;BME280;31265;49.680;8.608;2023-04-15T03:28:57;99631.81;;;1.73;100.00
45541;BME280;31265;49.680;8.608;2023-04-15T03:31:26;99624.16;;;1.71;100.00
45541;BME280;31265;49.680;8.608;2023-04-15T03:33:55;99616.41;;;1.76;100.00
45541;BME280;31265;49.680;8.608;2023-04-15T03:36:24;99626.06;;;1.77;100.00
45541;BME280;31265;49.680;8.608;2023-04-15T03:38:53;99627.53;;;1.78;100.00
45541;BME280;31265;49.680;8.608;2023-04-15T03:41:22;99628.81;;;1.77;100.00
45541;BME280;31265;49.680;8.608;2023-04-15T03:43:51;99635.31;;;1.74;100.00
45541;BME280;31265;49.680;8.608;2023-04-15T03:46:19;99636.56;;;1.72;100.00
45541;BME280;31265;49.680;8.608;2023-04-15T03:48:48;99634.78;;;1.75;100.00
45541;BME280;31265;49.680;8.608;2023-04-15T03:51:22;99637.28;;;1.73;100.00
45541;BME280;31265;49.680;8.608;2023-04-15T03:53:52;99634.06;;;1.75;100.00
45541;BME280;31265;49.680;8.608;2023-04-15T03:56:21;99626.06;;;1.77;100.00
45541;BME280;31265;49.680;8.608;2023-04-15T03:58:49;99628.34;;;1.72;100.00
45541;BME280;31265;49.680;8.608;2023-04-15T04:01:18;99643.06;;;1.69;100.00
45541;BME280;31265;49.680;8.608;2023-04-15T04:03:47;99634.28;;;1.77;100.00
45541;BME280;31265;49.680;8.608;2023-04-15T04:06:16;99632.28;;;1.77;100.00
45541;BME280;31265;49.680;8.608;2023-04-15T04:08:46;99630.81;;;1.76;100.00
45541;BME280;31265;49.680;8.608;2023-04-15T04:11:14;99637.47;;;1.81;100.00
45541;BME280;31265;49.680;8.608;2023-04-15T04:13:43;99631.78;;;1.79;100.00
45541;BME280;31265;49.680;8.608;2023-04-15T04:16:11;99630.81;;;1.76;100.00
45541;BME280;31265;49.680;8.608;2023-04-15T04:18:39;99630.38;;;1.72;100.00
45541;BME280;31265;49.680;8.608;2023-04-15T04:21:08;99635.38;;;1.68;100.00
45541;BME280;31265;49.680;8.608;2023-04-15T04:23:37;99635.91;;;1.66;100.00
45541;BME280;31265;49.680;8.608;2023-04-15T04:26:06;99632.94;;;1.64;100.00
45541;BME280;31265;49.680;8.608;2023-04-15T04:28:34;99640.41;;;1.64;100.00
45541;BME280;31265;49.680;8.608;2023-04-15T04:31:04;99639.88;;;1.65;100.00
45541;BME280;31265;49.680;8.608;2023-04-15T04:33:33;99638.19;;;1.62;100.00
45541;BME280;31265;49.680;8.608;2023-04-15T04:36:02;99645.94;;;1.58;100.00
45541;BME280;31265;49.680;8.608;2023-04-15T04:38:31;99649.88;;;1.63;100.00
45541;BME280;31265;49.680;8.608;2023-04-15T04:41:00;99642.63;;;1.65;100.00
45541;BME280;31265;49.680;8.608;2023-04-15T04:43:30;99642.34;;;1.69;100.00
45541;BME280;31265;49.680;8.608;2023-04-15T04:45:59;99650.31;;;1.67;100.00
45541;BME280;31265;49.680;8.608;2023-04-15T04:48:27;99654.59;;;1.62;100.00
45541;BME280;31265;49.680;8.608;2023-04-15T04:50:57;99653.13;;;1.61;100.00
45541;BME280;31265;49.680;8.608;2023-04-15T04:53:26;99658.16;;;1.57;100.00
45541;BME280;31265;49.680;8.608;2023-04-15T04:55:55;99655.19;;;1.55;100.00
45541;BME280;31265;49.680;8.608;2023-04-15T04:58:24;99670.34;;;1.56;100.00
45541;BME280;31265;49.680;8.608;2023-04-15T05:00:53;99666.84;;;1.56;100.00
45541;BME280;31265;49.680;8.608;2023-04-15T05:03:23;99664.13;;;1.56;100.00
45541;BME280;31265;49.680;8.608;2023-04-15T05:05:51;99665.88;;;1.53;100.00
45541;BME280;31265;49.680;8.608;2023-04-15T05:08:20;99654.00;;;1.50;100.00
45541;BME280;31265;49.680;8.608;2023-04-15T05:10:50;99662.56;;;1.60;100.00
45541;BME280;31265;49.680;8.608;2023-04-15T05:13:18;99652.81;;;1.65;100.00
45541;BME280;31265;49.680;8.608;2023-04-15T05:15:47;99658.75;;;1.69;100.00
45541;BME280;31265;49.680;8.608;2023-04-15T05:18:17;99666.44;;;1.70;100.00
45541;BME280;31265;49.680;8.608;2023-04-15T05:20:46;99668.16;;;1.74;100.00
45541;BME280;31265;49.680;8.608;2023-04-15T05:23:16;99662.91;;;1.76;100.00
45541;BME280;31265;49.680;8.608;2023-04-15T05:25:45;99657.84;;;1.80;100.00
45541;BME280;31265;49.680;8.608;2023-04-15T05:28:14;99662.28;;;1.83;100.00
45541;BME280;31265;49.680;8.608;2023-04-15T05:30:43;99661.28;;;1.86;100.00
45541;BME280;31265;49.680;8.608;2023-04-15T05:33:12;99663.13;;;1.97;100.00
45541;BME280;31265;49.680;8.608;2023-04-15T05:35:43;99656.81;;;2.02;100.00
45541;BME280;31265;49.680;8.608;2023-04-15T05:38:12;99666.44;;;2.08;100.00
45541;BME280;31265;49.680;8.608;2023-04-15T05:40:40;99662.16;;;2.13;100.00
45541;BME280;31265;49.680;8.608;2023-04-15T05:43:09;99659.97;;;2.25;100.00
45541;BME280;31265;49.680;8.608;2023-04-15T05:45:38;99654.13;;;2.34;100.00
45541;BME280;31265;49.680;8.608;2023-04-15T05:48:06;99662.25;;;2.40;100.00
45541;BME280;31265;49.680;8.608;2023-04-15T05:50:34;99655.94;;;2.45;100.00
45541;BME280;31265;49.680;8.608;2023-04-15T05:53:06;99669.97;;;2.54;100.00
45541;BME280;31265;49.680;8.608;2023-04-15T05:55:34;99673.28;;;2.66;100.00
45541;BME280;31265;49.680;8.608;2023-04-15T05:58:02;99679.63;;;2.74;100.00
45541;BME280;31265;49.680;8.608;2023-04-15T06:00:31;99681.47;;;2.85;100.00
45541;BME280;31265;49.680;8.608;2023-04-15T06:03:01;99691.38;;;3.01;100.00
45541;BME280;31265;49.680;8.608;2023-04-15T06:05:30;99683.59;;;3.06;100.00
45541;BME280;31265;49.680;8.608;2023-04-15T06:07:58;99687.56;;;2.91;100.00
45541;BME280;31265;49.680;8.608;2023-04-15T06:10:29;99692.09;;;2.89;100.00
45541;BME280;31265;49.680;8.608;2023-04-15T06:13:02;99691.59;;;2.90;100.00
45541;BME280;31265;49.680;8.608;2023-04-15T06:15:31;99694.22;;;2.96;100.00
45541;BME280;31265;49.680;8.608;2023-04-15T06:18:01;99695.06;;;3.04;100.00
45541;BME280;31265;49.680;8.608;2023-04-15T06:20:29;99700.03;;;3.19;100.00
45541;BME280;31265;49.680;8.608;2023-04-15T06:22:58;99693.53;;;3.35;100.00
45541;BME280;31265;49.680;8.608;2023-04-15T06:25:26;99698.81;;;3.47;100.00
45541;BME280;31265;49.680;8.608;2023-04-15T06:27:56;99698.16;;;3.67;100.00
45541;BME280;31265;49.680;8.608;2023-04-15T06:30:25;99701.81;;;3.96;100.00
45541;BME280;31265;49.680;8.608;2023-04-15T06:32:56;99707.34;;;4.17;100.00
45541;BME280;31265;49.680;8.608;2023-04-15T06:35:24;99704.31;;;4.21;100.00
45541;BME280;31265;49.680;8.608;2023-04-15T06:37:54;99704.78;;;4.32;100.00
45541;BME280;31265;49.680;8.608;2023-04-15T06:40:23;99707.88;;;4.50;100.00
45541;BME280;31265;49.680;8.608;2023-04-15T06:42:52;99713.66;;;4.81;100.00
45541;BME280;31265;49.680;8.608;2023-04-15T06:45:22;99717.22;;;4.89;100.00
45541;BME280;31265;49.680;8.608;2023-04-15T06:47:50;99717.75;;;5.37;100.00
45541;BME280;31265;49.680;8.608;2023-04-15T06:50:21;99718.63;;;5.60;100.00
45541;BME280;31265;49.680;8.608;2023-04-15T06:52:49;99716.31;;;6.09;100.00
45541;BME280;31265;49.680;8.608;2023-04-15T06:55:18;99716.19;;;6.30;100.00
45541;BME280;31265;49.680;8.608;2023-04-15T06:57:46;99714.75;;;6.52;100.00
45541;BME280;31265;49.680;8.608;2023-04-15T07:00:15;99716.28;;;6.76;100.00
45541;BME280;31265;49.680;8.608;2023-04-15T07:02:45;99715.56;;;6.83;100.00
45541;BME280;31265;49.680;8.608;2023-04-15T07:05:13;99719.03;;;6.83;100.00
45541;BME280;31265;49.680;8.608;2023-04-15T07:07:42;99710.56;;;7.04;100.00
45541;BME280;31265;49.680;8.608;2023-04-15T07:10:11;99710.22;;;7.08;100.00
45541;BME280;31265;49.680;8.608;2023-04-15T07:12:41;99714.59;;;7.26;100.00
45541;BME280;31265;49.680;8.608;2023-04-15T07:15:09;99714.06;;;7.28;100.00
45541;BME280;31265;49.680;8.608;2023-04-15T07:17:38;99709.81;;;7.27;100.00
45541;BME280;31265;49.680;8.608;2023-04-15T07:20:08;99713.50;;;7.29;100.00
45541;BME280;31265;49.680;8.608;2023-04-15T07:22:37;99711.09;;;7.33;100.00
45541;BME280;31265;49.680;8.608;2023-04-15T07:25:06;99712.75;;;7.37;100.00
45541;BME280;31265;49.680;8.608;2023-04-15T07:27:34;99713.50;;;7.29;100.00
45541;BME280;31265;49.680;8.608;2023-04-15T07:30:03;99714.44;;;7.01;100.00
45541;BME280;31265;49.680;8.608;2023-04-15T07:32:32;99699.00;;;7.06;100.00
45541;BME280;31265;49.680;8.608;2023-04-15T07:35:04;99711.31;;;7.20;100.00
45541;BME280;31265;49.680;8.608;2023-04-15T07:37:35;99712.03;;;7.21;100.00
45541;BME280;31265;49.680;8.608;2023-04-15T07:40:04;99713.06;;;7.56;100.00
45541;BME280;31265;49.680;8.608;2023-04-15T07:42:35;99712.13;;;7.77;100.00
45541;BME280;31265;49.680;8.608;2023-04-15T07:45:09;99713.44;;;8.16;100.00
45541;BME280;31265;49.680;8.608;2023-04-15T07:47:38;99722.44;;;8.82;100.00
45541;BME280;31265;49.680;8.608;2023-04-15T07:50:09;99726.28;;;9.29;100.00
45541;BME280;31265;49.680;8.608;2023-04-15T07:52:40;99723.63;;;9.56;100.00
45541;BME280;31265;49.680;8.608;2023-04-15T07:55:08;99716.00;;;9.64;100.00
45541;BME280;31265;49.680;8.608;2023-04-15T07:57:37;99713.44;;;9.76;100.00
45541;BME280;31265;49.680;8.608;2023-04-15T08:00:07;99717.28;;;9.81;100.00
45541;BME280;31265;49.680;8.608;2023-04-15T08:02:39;99710.88;;;10.05;100.00
45541;BME280;31265;49.680;8.608;2023-04-15T08:05:08;99706.81;;;10.51;100.00
45541;BME280;31265;49.680;8.608;2023-04-15T08:07:37;99708.63;;;10.75;100.00
45541;BME280;31265;49.680;8.608;2023-04-15T08:10:07;99706.94;;;10.90;100.00
45541;BME280;31265;49.680;8.608;2023-04-15T08:12:38;99709.19;;;11.01;100.00
45541;BME280;31265;49.680;8.608;2023-04-15T08:15:08;99707.19;;;11.31;100.00
45541;BME280;31265;49.680;8.608;2023-04-15T08:17:36;99711.72;;;11.26;100.00
45541;BME280;31265;49.680;8.608;2023-04-15T08:20:06;99720.78;;;11.36;100.00
45541;BME280;31265;49.680;8.608;2023-04-15T08:22:34;99714.81;;;11.59;100.00
45541;BME280;31265;49.680;8.608;2023-04-15T08:25:03;99721.56;;;11.95;100.00
45541;BME280;31265;49.680;8.608;2023-04-15T08:27:34;99719.47;;;12.25;100.00
45541;BME280;31265;49.680;8.608;2023-04-15T08:30:02;99717.69;;;12.39;100.00
45541;BME280;31265;49.680;8.608;2023-04-15T08:32:31;99714.56;;;12.55;100.00
45541;BME280;31265;49.680;8.608;2023-04-15T08:35:00;99716.63;;;12.54;100.00
45541;BME280;31265;49.680;8.608;2023-04-15T08:37:28;99716.25;;;12.69;100.00
45541;BME280;31265;49.680;8.608;2023-04-15T08:39:57;99724.75;;;12.72;100.00
45541;BME280;31265;49.680;8.608;2023-04-15T08:42:30;99720.66;;;13.04;100.00
45541;BME280;31265;49.680;8.608;2023-04-15T08:45:02;99724.88;;;13.58;100.00
45541;BME280;31265;49.680;8.608;2023-04-15T08:47:32;99726.78;;;14.10;100.00
45541;BME280;31265;49.680;8.608;2023-04-15T08:50:02;99731.19;;;14.25;100.00
45541;BME280;31265;49.680;8.608;2023-04-15T08:52:31;99730.06;;;14.63;100.00
45541;BME280;31265;49.680;8.608;2023-04-15T08:55:01;99730.53;;;14.83;100.00
45541;BME280;31265;49.680;8.608;2023-04-15T08:57:32;99723.03;;;14.86;99.02
45541;BME280;31265;49.680;8.608;2023-04-15T09:00:02;99724.00;;;15.14;91.98
45541;BME280;31265;49.680;8.608;2023-04-15T09:02:31;99723.75;;;15.59;82.66
45541;BME280;31265;49.680;8.608;2023-04-15T09:05:01;99721.81;;;15.61;74.88
45541;BME280;31265;49.680;8.608;2023-04-15T09:07:32;99729.00;;;15.53;74.48
45541;BME280;31265;49.680;8.608;2023-04-15T09:10:01;99718.13;;;15.21;74.70
45541;BME280;31265;49.680;8.608;2023-04-15T09:12:30;99721.56;;;14.96;75.77
45541;BME280;31265;49.680;8.608;2023-04-15T09:15:03;99734.19;;;14.86;80.89
45541;BME280;31265;49.680;8.608;2023-04-15T09:17:33;99737.34;;;15.15;76.88
45541;BME280;31265;49.680;8.608;2023-04-15T09:20:08;99733.81;;;14.68;81.04
45541;BME280;31265;49.680;8.608;2023-04-15T09:22:40;99741.84;;;14.85;74.42
45541;BME280;31265;49.680;8.608;2023-04-15T09:25:24;99736.63;;;14.68;78.42
45541;BME280;31265;49.680;8.608;2023-04-15T09:27:54;99742.19;;;14.68;74.34
45541;BME280;31265;49.680;8.608;2023-04-15T09:30:26;99741.78;;;14.50;77.27
45541;BME280;31265;49.680;8.608;2023-04-15T09:32:59;99744.63;;;14.73;74.65
45541;BME280;31265;49.680;8.608;2023-04-15T09:35:28;99746.22;;;14.65;73.10
45541;BME280;31265;49.680;8.608;2023-04-15T09:38:02;99745.81;;;14.58;72.63
45541;BME280;31265;49.680;8.608;2023-04-15T09:40:33;99755.47;;;14.79;72.39
45541;BME280;31265;49.680;8.608;2023-04-15T09:43:03;99757.91;;;14.51;69.46
45541;BME280;31265;49.680;8.608;2023-04-15T09:45:34;99762.06;;;14.50;66.06
45541;BME280;31265;49.680;8.608;2023-04-15T09:48:18;99756.28;;;14.70;68.40
45541;BME280;31265;49.680;8.608;2023-04-15T09:50:50;99753.63;;;14.95;67.08
45541;BME280;31265;49.680;8.608;2023-04-15T09:53:21;99766.75;;;15.04;64.60
45541;BME280;31265;49.680;8.608;2023-04-15T09:55:50;99759.69;;;14.68;64.88
45541;BME280;31265;49.680;8.608;2023-04-15T09:58:21;99767.81;;;14.76;65.75
45541;BME280;31265;49.680;8.608;2023-04-15T10:00:55;99774.63;;;14.73;63.53
45541;BME280;31265;49.680;8.608;2023-04-15T10:03:26;99763.84;;;14.79;65.63
45541;BME280;31265;49.680;8.608;2023-04-15T10:05:58;99771.34;;;15.23;61.66
45541;BME280;31265;49.680;8.608;2023-04-15T10:08:29;99775.34;;;15.20;62.77
45541;BME280;31265;49.680;8.608;2023-04-15T10:10:59;99779.09;;;15.48;57.64
45541;BME280;31265;49.680;8.608;2023-04-15T10:13:30;99779.09;;;15.48;55.23
45541;BME280;31265;49.680;8.608;2023-04-15T10:16:06;99782.63;;;15.49;56.98
45541;BME280;31265;49.680;8.608;2023-04-15T10:18:41;99781.69;;;15.21;55.65
45541;BME280;31265;49.680;8.608;2023-04-15T10:21:11;99788.59;;;15.32;55.79
45541;BME280;31265;49.680;8.608;2023-04-15T10:23:39;99789.06;;;15.52;56.01
45541;BME280;31265;49.680;8.608;2023-04-15T10:26:08;99793.53;;;15.57;53.96
45541;BME280;31265;49.680;8.608;2023-04-15T10:28:38;99785.19;;;15.33;54.14
45541;BME280;31265;49.680;8.608;2023-04-15T10:31:11;99797.59;;;14.95;56.39
45541;BME280;31265;49.680;8.608;2023-04-15T10:33:44;99800.28;;;15.04;56.34
45541;BME280;31265;49.680;8.608;2023-04-15T10:36:15;99793.47;;;15.08;59.41
45541;BME280;31265;49.680;8.608;2023-04-15T10:38:44;99791.63;;;15.00;56.76
45541;BME280;31265;49.680;8.608;2023-04-15T10:41:17;99799.41;;;14.90;56.91
45541;BME280;31265;49.680;8.608;2023-04-15T10:43:50;99797.97;;;14.89;55.18
45541;BME280;31265;49.680;8.608;2023-04-15T10:46:23;99807.94;;;14.47;55.83
45541;BME280;31265;49.680;8.608;2023-04-15T10:48:52;99801.59;;;14.35;56.78
45541;BME280;31265;49.680;8.608;2023-04-15T10:51:29;99810.41;;;14.31;55.90
45541;BME280;31265;49.680;8.608;2023-04-15T10:53:58;99808.78;;;14.16;56.28
45541;BME280;31265;49.680;8.608;2023-04-15T10:56:27;99809.88;;;14.45;55.60
45541;BME280;31265;49.680;8.608;2023-04-15T10:58:58;99817.59;;;14.34;54.03
45541;BME280;31265;49.680;8.608;2023-04-15T11:01:50;99817.00;;;14.03;54.74
45541;BME280;31265;49.680;8.608;2023-04-15T11:04:50;99826.41;;;13.97;58.09
45541;BME280;31265;49.680;8.608;2023-04-15T11:07:33;99816.75;;;14.32;58.13
45541;BME280;31265;49.680;8.608;2023-04-15T11:10:01;99819.09;;;14.14;58.40
45541;BME280;31265;49.680;8.608;2023-04-15T11:12:34;99816.75;;;14.32;57.51
45541;BME280;31265;49.680;8.608;2023-04-15T11:15:23;99815.31;;;14.43;55.77
45541;BME280;31265;49.680;8.608;2023-04-15T11:17:55;99817.38;;;14.42;55.30
45541;BME280;31265;49.680;8.608;2023-04-15T11:20:25;99814.19;;;14.36;55.49
45541;BME280;31265;49.680;8.608;2023-04-15T11:22:55;99823.66;;;14.31;57.09
45541;BME280;31265;49.680;8.608;2023-04-15T11:25:42;99828.13;;;14.57;57.43
45541;BME280;31265;49.680;8.608;2023-04-15T11:28:11;99827.56;;;14.82;56.35
45541;BME280;31265;49.680;8.608;2023-04-15T11:30:41;99833.97;;;14.61;58.60
45541;BME280;31265;49.680;8.608;2023-04-15T11:33:12;99838.41;;;15.00;57.05
45541;BME280;31265;49.680;8.608;2023-04-15T11:35:40;99849.59;;;15.23;56.70
45541;BME280;31265;49.680;8.608;2023-04-15T11:38:11;99848.63;;;15.54;57.75
45541;BME280;31265;49.680;8.608;2023-04-15T11:40:42;99850.44;;;15.73;57.94
45541;BME280;31265;49.680;8.608;2023-04-15T11:43:14;99855.16;;;15.82;58.23
45541;BME280;31265;49.680;8.608;2023-04-15T11:45:49;99836.25;;;16.06;55.09
45541;BME280;31265;49.680;8.608;2023-04-15T11:48:22;99841.44;;;16.12;55.42
45541;BME280;31265;49.680;8.608;2023-04-15T11:50:54;99833.53;;;16.20;52.82
45541;BME280;31265;49.680;8.608;2023-04-15T11:53:23;99834.56;;;17.45;50.78
45541;BME280;31265;49.680;8.608;2023-04-15T11:55:52;99831.75;;;17.59;48.09
45541;BME280;31265;49.680;8.608;2023-04-15T11:58:24;99829.41;;;16.86;50.17
45541;BME280;31265;49.680;8.608;2023-04-15T12:00:55;99837.50;;;16.29;49.35
45541;BME280;31265;49.680;8.608;2023-04-15T12:03:27;99841.94;;;15.47;52.26
45541;BME280;31265;49.680;8.608;2023-04-15T12:06:09;99841.44;;;15.51;51.53
45541;BME280;31265;49.680;8.608;2023-04-15T12:08:59;99840.09;;;15.52;54.04
45541;BME280;31265;49.680;8.608;2023-04-15T12:11:33;99843.88;;;15.45;54.00
45541;BME280;31265;49.680;8.608;2023-04-15T12:14:04;99848.00;;;15.79;50.48
45541;BME280;31265;49.680;8.608;2023-04-15T12:16:39;99844.25;;;15.63;54.76
45541;BME280;31265;49.680;8.608;2023-04-15T12:19:19;99845.19;;;15.79;51.78
45541;BME280;31265;49.680;8.608;2023-04-15T12:21:52;99853.00;;;15.45;53.52
45541;BME280;31265;49.680;8.608;2023-04-15T12:24:21;99855.31;;;15.37;55.80
45541;BME280;31265;49.680;8.608;2023-04-15T12:26:51;99853.84;;;15.36;56.04
45541;BME280;31265;49.680;8.608;2023-04-15T12:29:25;99862.13;;;15.34;55.57
45541;BME280;31265;49.680;8.608;2023-04-15T12:31:54;99853.72;;;15.22;55.33
45541;BME280;31265;49.680;8.608;2023-04-15T12:34:28;99860.16;;;15.13;57.64
45541;BME280;31265;49.680;8.608;2023-04-15T12:36:58;99861.00;;;15.04;57.42
45541;BME280;31265;49.680;8.608;2023-04-15T12:39:29;99858.81;;;15.02;55.88
45541;BME280;31265;49.680;8.608;2023-04-15T12:41:58;99866.94;;;14.98;57.80
45541;BME280;31265;49.680;8.608;2023-04-15T12:44:27;99866.22;;;14.98;59.49
45541;BME280;31265;49.680;8.608;2023-04-15T12:46:56;99880.00;;;14.72;58.16
45541;BME280;31265;49.680;8.608;2023-04-15T12:49:28;99881.00;;;14.77;58.76
45541;BME280;31265;49.680;8.608;2023-04-15T12:51:58;99885.69;;;14.41;59.88
45541;BME280;31265;49.680;8.608;2023-04-15T12:54:29;99894.19;;;14.22;61.07
45541;BME280;31265;49.680;8.608;2023-04-15T12:57:00;99888.78;;;14.02;58.29
45541;BME280;31265;49.680;8.608;2023-04-15T12:59:33;99890.09;;;14.01;59.52
45541;BME280;31265;49.680;8.608;2023-04-15T13:02:02;99895.47;;;14.09;62.73
45541;BME280;31265;49.680;8.608;2023-04-15T13:04:33;99899.19;;;13.80;63.68
45541;BME280;31265;49.680;8.608;2023-04-15T13:07:02;99911.22;;;13.83;66.00
45541;BME280;31265;49.680;8.608;2023-04-15T13:09:31;99908.88;;;13.79;64.31
45541;BME280;31265;49.680;8.608;2023-04-15T13:12:00;99910.69;;;13.65;68.43
45541;BME280;31265;49.680;8.608;2023-04-15T13:14:28;99929.34;;;13.62;68.49
45541;BME280;31265;49.680;8.608;2023-04-15T13:16:58;99918.63;;;13.68;68.92